Oxnard, California
Current Conditions -  °F | °C
As of 8:51 AM on Friday 31 Oct 2014 (Local Time) from KOXR Reporting Station
Overcast Overcast  
Wind Chill: 17°   Ceiling: 4200
Heat Index: 17°   Visibility: 10mi
Dew Point: 12°   Wind: 7mph
Humidity: 70%   Direction: 60°ENE
Pressure: 29.97"   Gusts: NA
Location:  34.2°N, 119.18°W
Report Text: KOXR 311551Z 06006KT 10SM OVC042 17/12 A2997 RMK AO2 SLP147 T01720117
Loading
Personal Weather Stations






























Interactive Weather Map
Tropical Storm Tracking
New forecast layout! Learn more

10-Day Weather Forecast

Advertisements
Track Severe Weather on mobile